x

San Clemente Basin - 27nm Se Of San Clemente Is, Ca (46086) Wave Buoy

1:50am - Sat 25th Oct 2014 All times are PDT. -7 hours from GMT.

  • Sig Wave height 4.3ft
  • Swell Direction
  • Peak Period 12s
  • Average Period 8s
  • Wind
    13mph, 16mph gusts
  • Sea Temp 71°f
  • Air Temp 68°f
  • Sea Pressure 1016.1mb
  • San Clemente Basin - 27nm Se Of San Clemente Is, Ca
  • San Clemente Basin - 27nm Se Of San Clemente Is, Ca

More Historic Weather Station data

Upgrade to MSW Pro to gain access to the past 30 days of data for over 8000 Wavebouys and Weather Stations around the globe.

Join Pro

Comparision Forecast

View Surf forecast
   
Sat 10/25 1:50am 4.5ft 12s 8s 13 16 mph 1016.1mb 71f 68f
12:50am 4.5ft 12s 8s 11 13 mph 1016mb 71f 68f
Fri 10/24 11:50pm 5ft 12s 9s 13 16 mph 1015.8mb 71f 69f
10:50pm 4.5ft 12s 9s 9 11 mph 1016mb 71f 70f
9:50pm 4ft 13s 9s 7 9 mph 1015.4mb 71f 70f
8:50pm 4ft 12s 9s 7 9 mph 1014.7mb 71f 70f
7:50pm 4.5ft 12s 9s 7 9 mph 1014.3mb 71f 70f
6:50pm 5ft 12s 9s 9 11 mph 1013.6mb 72f 70f
5:50pm 4.5ft 13s 8s 7 9 mph 1013.1mb 72f 71f
4:50pm 4.5ft 13s 8s 7
mph
1013.3mb 72f 71f
3:50pm 4.5ft 11s 8s 7 9 mph 1013.7mb 73f 71f
2:50pm 5ft 12s 8s 7 9 mph 1013.5mb 72f 71f
1:50pm 5ft 13s 8s 7 9 mph 1013.9mb 73f 70f
12:50pm 5ft 13s 8s 4
mph
1014.6mb 73f 71f
11:50am 5ft 13s 8s 4
mph
1015.3mb 73f 70f
10:50am 4.5ft 11s 8s 2
mph
1015.6mb 72f 70f
9:50am 4.5ft 11s 8s  -  2 mph 1015.6mb 71f 71f
8:50am 5ft 11s 9s  -  2 mph 1015.2mb 71f 72f
7:50am 5ft 13s 9s  -  2 mph 1014.6mb 71f 70f
6:50am 5ft 13s 9s  -  2 mph 1014.3mb 71f 69f
5:50am 5ft 12s 9s 4 7 mph 1014.1mb 71f 69f
4:50am 5ft 13s 8s 7
mph
1014mb 71f 69f
3:50am 5ft 12s 9s 4 7 mph 1013.9mb 71f 69f
2:50am 4.5ft 14s 8s 4 7 mph 1014.3mb 71f 69f
1:50am 4.5ft 12s 8s 7 9 mph 1014.3mb 71f 69f
12:50am 4.5ft 13s 8s 7 9 mph 1014.3mb 71f 69f
Thu 10/23 11:50pm 4.5ft 14s 8s 7
mph
1014.2mb 71f 69f
10:50pm 4.5ft 13s 8s 4
mph
1014.2mb 71f 70f
9:50pm 5ft 11s 8s 2 4 mph 1014mb 71f 69f
8:50pm 5ft 14s 8s  -  mph 1013.7mb 71f 69f
7:50pm 4.5ft 11s 8s 2
mph
1013.4mb 71f 70f
6:50pm 5ft 13s 8s 2 4 mph 1013.1mb 72f 70f
5:50pm 5ft 12s 8s 4
mph
1013.1mb 72f 71f
4:50pm 5.5ft 12s 8s 7
mph
1013.2mb 72f 71f
3:50pm 5ft 12s 8s 4 7 mph 1013.3mb 72f 71f
2:50pm 5ft 13s 8s 4 7 mph 1013.5mb 72f 71f
1:50pm 5.5ft 13s 8s 7 9 mph 1014mb 72f 70f
12:50pm 5ft 12s 8s 7 9 mph 1014.8mb 72f 69f
11:50am 5.5ft 11s 8s 7 9 mph 1015.5mb 71f 69f
10:50am 5ft 13s 8s 7 9 mph 1015.7mb 71f 69f
9:50am 5.5ft 13s 8s 4 7 mph 1015.5mb 71f 69f
8:50am 6ft 12s 8s 4
mph
1015.2mb 71f 69f
7:50am 5ft 12s 8s 4 7 mph 1014.5mb 71f 69f
6:50am 5.5ft 11s 8s 4 7 mph 1013.8mb 71f 68f
5:50am 5ft 11s 8s 4 7 mph 1013.5mb 71f 68f
4:50am 5ft 13s 8s 4 7 mph 1013.4mb 71f 69f
3:50am 5ft 14s 8s 4 7 mph 1013.5mb 71f 69f
2:50am 6ft 13s 8s 2 4 mph 1014mb 71f 69f
1:50am 6ft 9s 8s 4 7 mph 1014.1mb 71f 69f
12:50am 6ft 13s 8s 4 7 mph 1014.2mb 71f 69f
Wed 10/22 11:50pm 6ft 12s 9s 4 7 mph 1014.6mb 71f 69f
10:50pm 5.5ft 13s 8s 2 4 mph 1014.6mb 71f 69f
9:50pm 6ft 14s 8s 4 7 mph 1014.3mb 71f 69f
8:50pm 6ft 14s 9s 4 7 mph 1013.8mb 71f 69f
7:50pm 7ft 14s 9s 7 9 mph 1013.5mb 71f 69f
6:50pm 7ft 13s 9s 7
mph
1012.7mb 71f 69f
5:50pm 7ft 12s 9s 7 9 mph 1012.5mb 72f 70f
4:50pm 7ft 13s 9s 7 9 mph 1012.3mb 72f 70f
3:50pm 7ft 14s 9s 7 9 mph 1012.4mb 72f 70f
2:50pm 7.5ft 12s 9s 7 9 mph 1012.5mb 72f 70f
1:50pm 8ft 14s 9s 4 7 mph 1012.6mb 72f 69f
12:50pm 8ft 14s 9s 4
mph
1013.4mb 72f 69f
11:50am 8ft 15s 9s 2 4 mph 1013.8mb 72f 69f
10:50am 9ft 14s 9s 4 9 mph 1013.8mb 71f 69f
9:50am 8.5ft 12s 9s 4 9 mph 1013.6mb 71f 69f
8:50am 9ft 14s 9s 4 7 mph 1013.3mb 71f 69f
7:50am 9.5ft 14s 10s 2 4 mph 1012.7mb 71f 69f
6:50am 9ft 14s 9s  -  2 mph 1011.9mb 71f 67f
5:50am 9.5ft 14s 9s 2
mph
1012mb 71f 67f
4:50am 9.5ft 15s 9s 4 9 mph 1011.9mb 71f 68f
3:50am 9.5ft 15s 9s 2 4 mph 1011.3mb 71f 68f
2:50am 9ft 15s 9s 2 4 mph 1011.3mb 71f 68f
1:50am 9ft 15s 9s 7 9 mph 1011.7mb 71f 68f
12:50am 9ft 14s 9s 7 9 mph 1011.9mb 71f 68f
Tue 10/21 11:50pm 10ft 15s 10s 2 4 mph 1011.9mb 71f 69f
10:50pm 8ft 14s 9s 4 7 mph 1012mb 71f 69f
9:50pm 10ft 15s 10s 11 16 mph 1011.5mb 71f 69f
8:50pm 10ft 15s 10s 13 18 mph 1011.1mb 71f 69f
7:50pm 10.5ft 15s 10s 11 16 mph 1010.9mb 71f 69f
6:50pm 10ft 16s 10s 13 18 mph 1010.8mb 71f 69f
5:50pm 10ft 16s 11s 13 18 mph 1010.6mb 71f 69f
4:50pm 9ft 16s 10s 9 13 mph 1010.6mb 71f 69f
3:50pm 10ft 15s 11s 7 9 mph 1010.8mb 71f 69f
2:50pm 10ft 16s 11s 11 13 mph 1010.9mb 71f 69f
1:50pm 9ft 16s 10s 9 13 mph 1011.6mb 72f 69f
12:50pm 10ft 16s 10s 4 9 mph 1012.2mb 71f 68f
11:50am 9ft 16s 10s 4 7 mph 1012.8mb 71f 68f
10:50am 8ft 17s 9s 4 7 mph 1013.1mb 71f 68f